Time;durP1;ratioP1;P1;durP2;ratioP2;P2;SDS_P1;SDS_P2;PMS_P1;PMS_P2;Temp;Humidity;BMP_temperature;BMP_pressure;BME280_temperature;BME280_humidity;BME280_pressure;Samples;Min_cycle;Max_cycle;Signal;HPM_P1;HPM_P2
2023/09/21 00:02:17;;;;;;;;;;;;;;;21.39;53.70;98683.14;67851;1276;1016423;-65
2023/09/21 00:05:21;;;;;;;19.30;6.30;;;;;;;21.44;53.58;98679.73;67865;1276;1018494;-66
2023/09/21 00:08:24;;;;;;;20.10;6.20;;;;;;;21.72;52.97;98682.47;67854;1276;1016410;-65
2023/09/21 00:11:27;;;;;;;19.80;6.20;;;;;;;21.59;53.10;98683.10;67882;1253;1016469;-64
2023/09/21 00:14:30;;;;;;;21.20;6.60;;;;;;;21.51;53.43;98682.33;67860;1276;1016475;-65
2023/09/21 00:17:33;;;;;;;23.40;7.00;;;;;;;21.52;53.45;98684.96;67895;1276;1016142;-65
2023/09/21 00:20:42;;;;;;;23.90;5.90;;;;;;;21.57;53.43;98678.34;67906;1276;1016147;-68
2023/09/21 00:23:47;;;;;;;22.50;7.30;;;;;;;21.67;53.24;98677.65;67883;1276;1016343;-64
2023/09/21 00:26:51;;;;;;;21.80;7.40;;;;;;;21.63;53.37;98673.77;67845;1276;1015780;-65
2023/09/21 00:29:53;;;;;;;21.70;7.10;;;;;;;21.62;53.42;98669.56;67850;1276;1016001;-66
2023/09/21 00:32:56;;;;;;;22.10;7.70;;;;;;;21.61;53.59;98666.70;67867;1276;1016453;-66
2023/09/21 00:35:59;;;;;;;20.70;7.00;;;;;;;21.76;53.41;98668.68;67900;1276;1016437;-65
2023/09/21 00:39:02;;;;;;;24.70;7.60;;;;;;;21.79;53.47;98664.33;67863;1276;1015888;-66
2023/09/21 00:42:04;;;;;;;22.30;7.30;;;;;;;21.62;53.72;98663.42;67911;1276;1016484;-67
2023/09/21 00:45:08;;;;;;;22.50;7.60;;;;;;;21.75;53.54;98662.49;67927;1276;1015948;-67
2023/09/21 00:48:12;;;;;;;24.50;7.40;;;;;;;21.85;53.39;98660.24;67919;1276;1016462;-65
2023/09/21 00:51:16;;;;;;;22.90;7.50;;;;;;;21.85;53.47;98661.05;67864;1276;1016626;-66
2023/09/21 00:54:19;;;;;;;24.30;7.10;;;;;;;21.86;53.59;98660.93;67844;1276;1016450;-65
2023/09/21 00:57:22;;;;;;;22.20;7.30;;;;;;;21.85;53.80;98660.32;67865;1276;1016862;-65
2023/09/21 01:00:26;;;;;;;21.40;6.90;;;;;;;21.82;53.93;98660.73;67922;1276;1016348;-65
2023/09/21 01:03:30;;;;;;;20.20;7.40;;;;;;;21.86;54.11;98661.12;67891;1276;1016127;-64
2023/09/21 01:06:32;;;;;;;23.00;7.70;;;;;;;21.88;54.10;98657.84;67848;1276;1019640;-66
2023/09/21 01:09:34;;;;;;;22.10;7.20;;;;;;;22.30;53.01;98659.87;67901;1276;1016364;-65
2023/09/21 01:12:37;;;;;;;20.20;7.20;;;;;;;22.39;52.92;98656.34;67904;1276;1016602;-64
2023/09/21 01:15:40;;;;;;;23.70;7.60;;;;;;;22.58;52.47;98654.42;67847;1276;1016349;-65
2023/09/21 01:18:43;;;;;;;22.60;7.20;;;;;;;22.29;53.12;98649.45;67933;1276;1016310;-66
2023/09/21 01:21:46;;;;;;;21.40;7.30;;;;;;;22.28;53.22;98645.75;67906;1276;1016538;-65
2023/09/21 01:24:48;;;;;;;23.80;7.70;;;;;;;22.03;54.05;98640.55;67890;1276;1016474;-65
2023/09/21 01:27:51;;;;;;;20.90;8.00;;;;;;;21.92;54.45;98634.70;67924;1276;1016391;-65
2023/09/21 01:30:56;;;;;;;22.40;7.70;;;;;;;22.18;53.85;98635.86;67864;1276;1016397;-68
2023/09/21 01:34:00;;;;;;;22.90;8.40;;;;;;;22.13;53.95;98634.08;67867;1276;1016488;-68
2023/09/21 01:37:05;;;;;;;21.70;7.40;;;;;;;22.23;53.72;98637.77;67927;1276;1016078;-65
2023/09/21 01:40:13;;;;;;;22.40;8.60;;;;;;;22.23;53.68;98632.66;67902;1276;1016395;-65
2023/09/21 01:43:16;;;;;;;25.30;8.70;;;;;;;21.89;54.56;98629.35;67912;1276;1016175;-67
2023/09/21 01:46:21;;;;;;;23.00;8.40;;;;;;;21.86;54.88;98625.05;67889;1276;1016320;-66
2023/09/21 01:49:24;;;;;;;24.30;8.70;;;;;;;21.99;54.46;98624.20;67847;1276;1016440;-66
2023/09/21 01:52:27;;;;;;;;;;;;;;;21.85;54.96;98620.08;67885;1276;1016338;-65
2023/09/21 01:55:29;;;;;;;;;;;;;;;21.77;55.34;98618.00;67930;1276;1015996;-67
2023/09/21 01:58:32;;;;;;;27.00;9.30;;;;;;;21.75;55.55;98615.94;67904;1276;1016510;-68
2023/09/21 02:01:34;;;;;;;23.70;9.20;;;;;;;21.75;55.52;98615.16;67848;1276;1017437;-67
2023/09/21 02:04:37;;;;;;;24.60;9.50;;;;;;;21.71;55.61;98617.38;67894;1276;1018507;-69
2023/09/21 02:07:40;;;;;;;24.40;9.60;;;;;;;21.83;55.37;98613.57;67915;1276;1016299;-65
2023/09/21 02:10:43;;;;;;;24.80;9.80;;;;;;;21.72;55.84;98610.34;67891;1276;1016463;-66
2023/09/21 02:13:45;;;;;;;25.00;9.90;;;;;;;21.75;55.76;98607.15;67939;1276;1016556;-69
2023/09/21 02:16:48;;;;;;;23.30;10.00;;;;;;;21.73;55.97;98602.80;67903;1276;1016809;-68
2023/09/21 02:19:50;;;;;;;;;;;;;;;21.74;55.97;98598.35;67865;1276;1016414;-68
2023/09/21 02:22:53;;;;;;;26.10;10.10;;;;;;;21.83;55.68;98597.95;67889;1276;1016446;-68
2023/09/21 02:25:55;;;;;;;26.70;10.10;;;;;;;21.72;56.01;98595.41;67909;1276;1016161;-70
2023/09/21 02:29:00;;;;;;;;;;;;;;;21.76;55.92;98600.14;67921;1276;1016268;-69
2023/09/21 02:32:03;;;;;;;24.60;10.40;;;;;;;21.77;56.04;98602.31;67898;1253;1016475;-69
2023/09/21 02:35:07;;;;;;;25.80;11.20;;;;;;;21.95;55.67;98601.19;67908;1276;1017414;-66
2023/09/21 02:38:11;;;;;;;27.60;11.30;;;;;;;21.98;55.36;98596.65;67885;1276;1016401;-67
2023/09/21 02:41:13;;;;;;;26.20;10.80;;;;;;;22.07;55.19;98591.30;67874;1276;1016431;-66
2023/09/21 02:44:16;;;;;;;;;;;;;;;22.12;55.08;98592.31;67910;1276;1016437;-65
2023/09/21 02:47:19;;;;;;;26.10;10.70;;;;;;;22.05;55.16;98593.70;67895;1276;1016452;-64
2023/09/21 02:50:22;;;;;;;26.30;10.80;;;;;;;22.06;55.00;98596.27;67884;1276;1016160;-65
2023/09/21 02:53:24;;;;;;;24.70;10.70;;;;;;;22.02;55.11;98595.25;67882;1276;1016542;-66
2023/09/21 02:56:27;;;;;;;25.50;10.60;;;;;;;22.02;55.29;98594.19;67859;1276;1016176;-65
2023/09/21 02:59:29;;;;;;;26.20;10.20;;;;;;;22.00;55.15;98590.30;67926;1276;1016421;-66
2023/09/21 03:02:32;;;;;;;24.90;10.00;;;;;;;22.05;54.97;98595.17;67922;1276;1017694;-65
2023/09/21 03:05:36;;;;;;;24.50;10.60;;;;;;;22.03;55.07;98593.09;67900;1276;1016184;-65
2023/09/21 03:08:38;;;;;;;25.70;10.00;;;;;;;22.03;55.05;98595.45;67900;1276;1016229;-64
2023/09/21 03:11:42;;;;;;;;;;;;;;;22.08;55.02;98592.77;67858;1276;1016501;-65
2023/09/21 03:14:46;;;;;;;25.10;10.80;;;;;;;22.10;55.08;98590.31;67898;1276;1017234;-64
2023/09/21 03:17:49;;;;;;;24.60;10.50;;;;;;;22.13;55.01;98588.81;67879;1276;1017273;-65
2023/09/21 03:20:53;;;;;;;24.20;10.10;;;;;;;22.11;54.95;98586.61;67885;1276;1016122;-64
2023/09/21 03:23:55;;;;;;;25.00;10.60;;;;;;;21.98;55.30;98585.43;67882;1276;1015885;-64
2023/09/21 03:26:58;;;;;;;26.10;11.00;;;;;;;21.97;55.34;98589.38;67913;1276;1016627;-65
2023/09/21 03:30:01;;;;;;;25.50;10.50;;;;;;;21.95;55.40;98580.54;67875;1276;1016410;-68
2023/09/21 03:33:05;;;;;;;25.60;10.60;;;;;;;22.05;55.13;98573.55;67890;1276;1016413;-64
2023/09/21 03:36:13;;;;;;;25.30;10.70;;;;;;;22.00;55.30;98577.98;67874;1276;1016731;-68
2023/09/21 03:39:17;;;;;;;26.00;9.90;;;;;;;22.04;55.17;98579.70;67885;1276;1019204;-67
2023/09/21 03:42:20;;;;;;;27.70;11.00;;;;;;;22.02;55.21;98577.27;67893;1276;1016278;-66
2023/09/21 03:45:24;;;;;;;26.40;10.70;;;;;;;21.97;55.45;98574.32;67908;1276;1016352;-64
2023/09/21 03:48:26;;;;;;;25.60;10.50;;;;;;;21.94;55.50;98571.96;67933;1276;1015750;-64
2023/09/21 03:51:29;;;;;;;26.30;11.10;;;;;;;22.05;55.17;98571.45;67935;1276;1016391;-65
2023/09/21 03:54:31;;;;;;;24.60;10.90;;;;;;;22.09;55.19;98570.99;67896;1276;1016171;-64
2023/09/21 03:57:33;;;;;;;26.20;10.90;;;;;;;22.11;55.13;98569.52;67886;1276;1016474;-64
2023/09/21 04:00:37;;;;;;;24.10;10.70;;;;;;;22.19;54.95;98567.91;67899;1276;1016219;-64
2023/09/21 04:03:40;;;;;;;27.70;11.00;;;;;;;22.24;54.79;98567.65;67906;1276;1016420;-66
2023/09/21 04:06:45;;;;;;;26.80;10.60;;;;;;;22.29;54.62;98562.37;67926;1276;1016450;-65
2023/09/21 04:09:47;;;;;;;23.80;10.70;;;;;;;22.19;54.83;98563.67;67904;1276;1016478;-64
2023/09/21 04:12:54;;;;;;;;;;;;;;;22.16;54.93;98563.22;67893;1276;1016515;-64
2023/09/21 04:15:57;;;;;;;25.90;10.60;;;;;;;22.14;55.00;98563.49;67905;1276;1016450;-67
2023/09/21 04:19:01;;;;;;;24.30;10.80;;;;;;;22.13;54.96;98563.40;67901;1276;1018726;-66
2023/09/21 04:22:03;;;;;;;24.90;10.50;;;;;;;22.07;55.09;98561.63;67892;1276;1015737;-64
2023/09/21 04:25:08;;;;;;;24.60;10.10;;;;;;;22.10;55.01;98560.41;67867;1276;1016538;-66
2023/09/21 04:28:11;;;;;;;24.30;10.60;;;;;;;21.96;55.36;98558.20;67899;1276;1016454;-68
2023/09/21 04:31:13;;;;;;;26.70;11.00;;;;;;;21.71;55.97;98557.77;67890;1276;1016404;-65
2023/09/21 04:34:16;;;;;;;24.40;11.20;;;;;;;21.68;56.22;98557.30;67864;1276;1016363;-69
2023/09/21 04:37:18;;;;;;;26.50;10.70;;;;;;;21.65;56.27;98553.80;67916;1276;1016162;-69
2023/09/21 04:40:22;;;;;;;23.40;10.70;;;;;;;21.84;55.89;98554.88;67928;1276;1016765;-68
2023/09/21 04:43:28;;;;;;;26.00;10.70;;;;;;;21.74;56.19;98554.10;67871;1276;1016459;-65
2023/09/21 04:46:31;;;;;;;24.90;10.50;;;;;;;21.66;56.57;98552.01;67918;1276;1016148;-65
2023/09/21 04:49:34;;;;;;;27.30;11.00;;;;;;;21.76;56.38;98557.38;67864;1276;1016438;-67
2023/09/21 04:52:36;;;;;;;25.50;11.00;;;;;;;21.86;56.16;98553.84;67876;1276;1016100;-64
2023/09/21 04:55:38;;;;;;;27.30;11.70;;;;;;;21.82;56.40;98554.42;67855;1276;1016222;-69
2023/09/21 04:58:41;;;;;;;25.60;10.90;;;;;;;21.99;56.25;98550.41;67862;1276;1016436;-69
2023/09/21 05:01:43;;;;;;;24.60;11.10;;;;;;;22.20;55.59;98549.97;67909;1276;1016347;-69
2023/09/21 05:04:46;;;;;;;25.90;11.00;;;;;;;22.32;55.55;98553.50;67910;1276;1016692;-67
2023/09/21 05:07:48;;;;;;;26.00;11.00;;;;;;;22.44;55.33;98553.93;67870;1276;1020491;-67
2023/09/21 05:10:51;;;;;;;;;;;;;;;22.46;55.53;98548.82;67917;1276;1016380;-64
2023/09/21 05:13:53;;;;;;;26.80;11.50;;;;;;;22.55;55.49;98546.16;67912;1276;1017230;-65
2023/09/21 05:16:58;;;;;;;26.00;12.00;;;;;;;22.60;55.32;98543.83;67893;1276;1016494;-65
2023/09/21 05:20:00;;;;;;;26.20;12.40;;;;;;;22.62;55.49;98545.41;67885;1276;1016487;-65
2023/09/21 05:23:04;;;;;;;26.10;11.80;;;;;;;22.76;55.25;98547.39;67926;1276;1016440;-64
2023/09/21 05:26:07;;;;;;;25.00;11.60;;;;;;;22.77;55.32;98546.01;67878;1276;1016262;-65
2023/09/21 05:29:09;;;;;;;25.70;11.50;;;;;;;22.84;55.41;98544.57;67880;1276;1016445;-65
2023/09/21 05:32:12;;;;;;;25.30;10.60;;;;;;;23.00;55.30;98546.69;67931;1276;1016377;-66
2023/09/21 05:35:16;;;;;;;25.30;10.80;;;;;;;23.24;54.78;98546.70;67887;1276;1016137;-63
2023/09/21 05:38:18;;;;;;;24.70;10.60;;;;;;;23.37;54.74;98546.31;67857;1276;1016117;-65
2023/09/21 05:41:21;;;;;;;26.40;11.00;;;;;;;23.46;54.69;98544.31;67911;1276;1016265;-65
2023/09/21 05:44:25;;;;;;;24.10;9.80;;;;;;;23.67;54.58;98544.19;67929;1276;1017434;-63
2023/09/21 05:47:27;;;;;;;26.40;10.40;;;;;;;23.80;54.51;98540.33;67884;1276;1016582;-64
2023/09/21 05:50:30;;;;;;;;;;;;;;;23.92;54.36;98537.30;67915;1276;1016342;-67
2023/09/21 05:53:32;;;;;;;23.40;9.80;;;;;;;23.97;54.19;98538.77;67860;1276;1016735;-63
2023/09/21 05:56:36;;;;;;;23.00;9.20;;;;;;;24.16;54.00;98541.02;67891;1276;1016409;-64
2023/09/21 05:59:38;;;;;;;23.30;9.10;;;;;;;24.26;54.13;98540.96;67915;1276;1016465;-65
2023/09/21 06:02:40;;;;;;;;;;;;;;;24.52;53.91;98541.62;67902;1276;1016458;-64
2023/09/21 06:05:45;;;;;;;24.10;8.90;;;;;;;24.84;53.45;98539.64;67853;1276;1016234;-63
2023/09/21 06:08:48;;;;;;;22.70;9.00;;;;;;;25.11;52.82;98539.00;67886;1276;1016929;-65
2023/09/21 06:11:51;;;;;;;20.90;8.60;;;;;;;25.33;52.26;98539.48;67887;1276;1016480;-63
2023/09/21 06:14:55;;;;;;;;;;;;;;;25.49;52.35;98538.36;67897;1276;1016496;-69
2023/09/21 06:17:57;;;;;;;21.40;8.30;;;;;;;25.62;52.02;98538.88;67909;1276;1016483;-63
2023/09/21 06:21:02;;;;;;;20.70;8.20;;;;;;;25.76;51.70;98539.29;67932;1276;1018687;-63
2023/09/21 06:24:04;;;;;;;21.20;8.00;;;;;;;25.81;51.53;98539.48;67896;1276;1016447;-63
2023/09/21 06:27:07;;;;;;;21.60;8.30;;;;;;;25.85;51.38;98538.84;67855;1276;1016466;-63
2023/09/21 06:30:10;;;;;;;20.50;7.30;;;;;;;25.89;51.23;98537.79;67893;1276;1017820;-62
2023/09/21 06:33:14;;;;;;;20.00;7.40;;;;;;;25.88;51.33;98536.86;67879;1276;1016538;-63
2023/09/21 06:36:18;;;;;;;20.60;7.10;;;;;;;26.07;51.53;98535.15;67921;1276;1016482;-65
2023/09/21 06:39:21;;;;;;;20.50;7.40;;;;;;;26.18;51.08;98532.80;67884;1276;1016457;-63
2023/09/21 06:42:23;;;;;;;18.60;6.70;;;;;;;26.35;50.99;98533.94;67900;1276;1016163;-64
2023/09/21 06:45:31;;;;;;;;;;;;;;;26.57;50.89;98534.31;67926;1276;1016469;-64
2023/09/21 06:48:33;;;;;;;18.30;6.20;;;;;;;26.72;50.28;98536.06;67876;1276;1016536;-65
2023/09/21 06:51:35;;;;;;;20.00;6.30;;;;;;;26.89;50.15;98537.28;67918;1276;1016488;-63
2023/09/21 06:54:40;;;;;;;18.10;6.10;;;;;;;26.99;49.73;98538.94;67898;1276;1016201;-66
2023/09/21 06:57:42;;;;;;;18.50;6.20;;;;;;;27.09;49.68;98538.81;67855;1276;1016317;-64
2023/09/21 07:00:45;;;;;;;18.00;5.70;;;;;;;27.53;49.44;98534.70;67865;1276;1019406;-66
2023/09/21 07:03:48;;;;;;;20.60;5.70;;;;;;;27.74;48.84;98533.90;67882;1276;1016334;-64
2023/09/21 07:06:51;;;;;;;17.70;5.60;;;;;;;27.92;48.45;98534.26;67879;1276;1016230;-64
2023/09/21 07:09:54;;;;;;;17.00;5.40;;;;;;;28.08;48.80;98530.31;67872;1276;1015931;-68
2023/09/21 07:12:57;;;;;;;18.40;5.40;;;;;;;28.29;48.65;98524.70;67880;1276;1016357;-64
2023/09/21 07:15:59;;;;;;;17.50;5.40;;;;;;;28.53;48.06;98526.63;67865;1276;1016413;-64
2023/09/21 07:19:02;;;;;;;18.70;5.20;;;;;;;28.67;47.63;98526.40;67879;1276;1016470;-64
2023/09/21 07:22:04;;;;;;;16.90;5.10;;;;;;;28.84;47.35;98522.67;67874;1276;1016460;-67
2023/09/21 07:25:09;;;;;;;16.10;5.00;;;;;;;28.90;46.86;98521.83;67883;1276;1016439;-69
2023/09/21 07:28:11;;;;;;;14.40;4.60;;;;;;;29.05;46.97;98522.95;67876;1276;1016430;-67
2023/09/21 07:31:14;;;;;;;16.90;5.10;;;;;;;29.32;47.17;98522.48;67892;1276;1016422;-66
2023/09/21 07:34:16;;;;;;;18.30;5.00;;;;;;;29.58;46.64;98518.77;67900;1276;1016198;-64
2023/09/21 07:37:19;;;;;;;17.00;5.00;;;;;;;29.58;45.89;98518.58;67858;1276;1016369;-64
2023/09/21 07:40:22;;;;;;;14.80;4.70;;;;;;;29.46;46.31;98519.90;67911;1276;1016484;-68
2023/09/21 07:43:24;;;;;;;15.80;4.80;;;;;;;29.63;45.69;98516.39;67875;1276;1016054;-65
2023/09/21 07:46:28;;;;;;;16.10;4.70;;;;;;;29.81;45.47;98513.78;67869;1276;1016338;-65
2023/09/21 07:49:30;;;;;;;14.50;4.20;;;;;;;29.98;45.20;98513.76;67906;1276;1016417;-65
2023/09/21 07:52:33;;;;;;;14.80;4.30;;;;;;;30.32;44.96;98510.82;67891;1276;1016479;-66
2023/09/21 07:55:36;;;;;;;16.20;4.40;;;;;;;30.54;44.56;98508.07;67886;1276;1016262;-65
2023/09/21 07:58:38;;;;;;;18.00;4.70;;;;;;;30.51;44.41;98507.95;67915;1276;1016317;-65
2023/09/21 08:01:41;;;;;;;14.80;4.00;;;;;;;30.63;44.39;98504.78;67863;1276;1016004;-65
2023/09/21 08:04:43;;;;;;;12.50;3.70;;;;;;;30.69;44.78;98500.23;67879;1276;1016229;-64
2023/09/21 08:07:46;;;;;;;13.50;4.20;;;;;;;30.99;44.06;98497.66;67846;1276;1016490;-64
2023/09/21 08:10:50;;;;;;;13.30;4.10;;;;;;;31.09;44.23;98497.26;67870;1276;1016159;-64
2023/09/21 08:13:52;;;;;;;14.20;3.70;;;;;;;31.26;44.00;98493.05;67908;1276;1016266;-65
2023/09/21 08:16:55;;;;;;;13.40;4.00;;;;;;;31.64;43.44;98493.93;67897;1276;1016346;-63
2023/09/21 08:19:58;;;;;;;18.90;3.90;;;;;;;31.91;42.56;98493.95;67862;1276;1016393;-66
2023/09/21 08:23:00;;;;;;;12.80;3.60;;;;;;;31.98;42.18;98495.13;67845;1276;1018691;-63
2023/09/21 08:26:03;;;;;;;11.50;3.50;;;;;;;31.96;42.53;98495.21;67868;1276;1016628;-65
2023/09/21 08:29:06;;;;;;;10.00;3.40;;;;;;;32.27;42.33;98494.98;67846;1276;1016423;-67
2023/09/21 08:32:09;;;;;;;10.90;3.30;;;;;;;32.58;41.15;98490.72;67882;1276;1016925;-66
2023/09/21 08:35:12;;;;;;;13.10;3.60;;;;;;;32.74;41.41;98489.80;67860;1276;1016295;-64
2023/09/21 08:38:16;;;;;;;12.30;3.40;;;;;;;32.82;41.16;98482.35;67894;1276;1019025;-67
2023/09/21 08:41:19;;;;;;;12.70;3.30;;;;;;;32.79;40.05;98479.40;67853;1276;1016544;-64
2023/09/21 08:44:21;;;;;;;9.00;3.30;;;;;;;32.50;40.40;98479.19;67896;1276;1016183;-65
2023/09/21 08:47:24;;;;;;;10.20;3.40;;;;;;;32.18;40.42;98480.09;67856;1276;1016466;-67
2023/09/21 08:50:26;;;;;;;10.10;3.10;;;;;;;32.14;41.01;98480.42;67833;1276;1018147;-65
2023/09/21 08:53:29;;;;;;;10.50;3.20;;;;;;;32.16;40.49;98479.72;67867;1276;1016481;-64
2023/09/21 08:56:33;;;;;;;9.80;3.10;;;;;;;32.28;40.44;98475.89;67884;1276;1016781;-64
2023/09/21 08:59:35;;;;;;;8.20;2.90;;;;;;;32.51;39.82;98477.90;67903;1276;1016964;-66
2023/09/21 09:02:37;;;;;;;9.70;3.20;;;;;;;32.58;39.56;98476.98;67908;1276;1016471;-65
2023/09/21 09:05:40;;;;;;;11.90;3.10;;;;;;;32.68;39.54;98469.23;67855;1276;1016465;-68
2023/09/21 09:08:42;;;;;;;10.60;3.30;;;;;;;32.70;38.87;98465.30;67705;1276;1019263;-65
2023/09/21 09:11:45;;;;;;;12.70;3.30;;;;;;;32.88;39.01;98464.66;67844;1276;1016801;-66
2023/09/21 09:14:48;;;;;;;13.20;3.50;;;;;;;33.19;38.63;98460.58;67884;1276;1016494;-64
2023/09/21 09:17:50;;;;;;;13.60;3.20;;;;;;;33.34;38.29;98462.27;67847;1276;1016503;-65
2023/09/21 09:20:53;;;;;;;10.00;3.10;;;;;;;33.60;38.11;98459.22;67848;1276;1016491;-65
2023/09/21 09:23:55;;;;;;;9.50;2.80;;;;;;;33.40;37.52;98454.42;67890;1276;1016476;-65
2023/09/21 09:26:57;;;;;;;10.20;3.00;;;;;;;33.31;37.99;98450.81;67903;1276;1016723;-67
2023/09/21 09:30:00;;;;;;;9.80;2.80;;;;;;;33.43;37.18;98450.59;67877;1276;1016420;-65
2023/09/21 09:33:03;;;;;;;8.80;3.00;;;;;;;33.48;37.04;98451.52;67864;1276;1017639;-67
2023/09/21 09:36:06;;;;;;;10.10;2.60;;;;;;;33.49;37.60;98452.02;67878;1276;1016461;-65
2023/09/21 09:39:09;;;;;;;8.60;2.80;;;;;;;33.69;36.88;98446.89;67867;1276;1016450;-68
2023/09/21 09:42:13;;;;;;;11.10;2.90;;;;;;;33.80;36.86;98440.93;67881;1276;1016300;-68
2023/09/21 09:45:16;;;;;;;8.80;2.70;;;;;;;34.09;36.59;98443.20;67884;1276;1016883;-65
2023/09/21 09:48:19;;;;;;;10.80;2.80;;;;;;;34.26;36.17;98441.16;67882;1276;1016368;-64
2023/09/21 09:51:21;;;;;;;7.80;2.70;;;;;;;34.48;36.34;98441.86;67885;1261;1016867;-67
2023/09/21 09:54:26;;;;;;;8.60;2.80;;;;;;;34.63;35.57;98438.55;67884;1276;1016387;-67
2023/09/21 09:57:28;;;;;;;6.80;2.60;;;;;;;34.67;35.08;98432.48;67865;1276;1016003;-65
2023/09/21 10:00:31;;;;;;;7.80;2.50;;;;;;;34.81;35.15;98429.05;67839;1276;1016365;-65
2023/09/21 10:03:35;;;;;;;6.30;2.50;;;;;;;34.93;34.72;98424.79;67903;1276;1016890;-67
2023/09/21 10:06:37;;;;;;;7.30;2.60;;;;;;;34.79;34.67;98422.94;67836;1276;1016975;-65
2023/09/21 10:09:40;;;;;;;11.10;2.70;;;;;;;34.84;34.78;98419.55;67890;1276;1016158;-67
2023/09/21 10:12:42;;;;;;;9.60;2.80;;;;;;;34.94;34.80;98418.81;67892;1276;1016475;-65
2023/09/21 10:15:45;;;;;;;9.40;2.70;;;;;;;34.87;34.55;98417.33;67851;1276;1016362;-65
2023/09/21 10:18:48;;;;;;;9.90;2.60;;;;;;;35.08;34.66;98410.87;67850;1276;1016512;-65
2023/09/21 10:21:51;;;;;;;8.80;2.50;;;;;;;35.22;34.61;98407.02;67858;1276;1015982;-66
2023/09/21 10:24:53;;;;;;;9.60;2.70;;;;;;;35.39;34.60;98408.16;67863;1276;1016145;-66
2023/09/21 10:27:56;;;;;;;8.70;2.70;;;;;;;35.49;34.28;98409.67;67875;1276;1016704;-66
2023/09/21 10:30:59;;;;;;;7.50;2.60;;;;;;;35.51;34.03;98405.81;67890;1276;1016482;-65
2023/09/21 10:34:02;;;;;;;6.30;2.20;;;;;;;35.60;34.10;98403.39;67883;1276;1016438;-65
2023/09/21 10:37:10;;;;;;;9.70;2.60;;;;;;;35.77;34.21;98399.63;67864;1276;1016448;-64
2023/09/21 10:40:13;;;;;;;10.40;2.70;;;;;;;35.90;33.41;98397.22;67914;1276;1016677;-67
2023/09/21 10:43:15;;;;;;;10.70;3.00;;;;;;;35.55;33.26;98392.95;67862;1276;1016469;-64
2023/09/21 10:46:20;;;;;;;7.50;2.70;;;;;;;35.38;33.77;98387.55;67850;1276;1016748;-65
2023/09/21 10:49:23;;;;;;;7.20;2.60;;;;;;;35.41;34.22;98382.77;67906;1276;1016852;-67
2023/09/21 10:52:25;;;;;;;7.10;2.60;;;;;;;35.63;33.85;98380.22;67866;1276;1016619;-67
2023/09/21 10:55:28;;;;;;;9.30;2.90;;;;;;;35.83;33.54;98379.56;67851;1276;1016402;-65
2023/09/21 10:58:30;;;;;;;8.40;2.40;;;;;;;35.74;33.01;98375.63;67842;1276;1016594;-65
2023/09/21 11:01:33;;;;;;;10.20;2.50;;;;;;;35.67;32.89;98374.17;67887;1276;1016923;-67
2023/09/21 11:04:35;;;;;;;8.50;2.50;;;;;;;35.66;33.02;98371.89;67870;1276;1016736;-66
2023/09/21 11:07:39;;;;;;;7.30;2.40;;;;;;;35.71;32.88;98373.90;67860;1276;1017293;-66
2023/09/21 11:10:42;;;;;;;7.90;2.80;;;;;;;35.83;32.80;98363.22;67893;1276;1016467;-67
2023/09/21 11:13:45;;;;;;;8.00;2.70;;;;;;;35.85;32.96;98360.39;67901;1276;1016331;-64
2023/09/21 11:16:47;;;;;;;13.00;2.80;;;;;;;35.86;32.66;98354.21;67873;1276;1016318;-65
2023/09/21 11:19:49;;;;;;;8.40;2.90;;;;;;;35.94;32.80;98354.84;67876;1276;1016364;-65
2023/09/21 11:22:52;;;;;;;15.30;3.40;;;;;;;36.11;32.96;98350.53;67855;1276;1016430;-64
2023/09/21 11:25:54;;;;;;;9.30;3.00;;;;;;;36.11;32.76;98350.16;67849;1276;1017070;-66
2023/09/21 11:28:58;;;;;;;7.60;2.80;;;;;;;36.16;32.83;98345.50;67871;1276;1017675;-67
2023/09/21 11:32:00;;;;;;;6.70;2.60;;;;;;;36.20;33.25;98345.40;67867;1276;1018743;-64
2023/09/21 11:35:04;;;;;;;9.50;3.00;;;;;;;36.33;33.13;98341.77;67894;1276;1016434;-65
2023/09/21 11:38:06;;;;;;;12.80;3.10;;;;;;;36.11;32.93;98346.48;67851;1276;1016501;-65
2023/09/21 11:41:09;;;;;;;8.50;2.80;;;;;;;35.90;32.92;98343.37;67828;1276;1016115;-65
2023/09/21 11:44:12;;;;;;;12.50;3.20;;;;;;;35.95;33.52;98337.81;67903;1276;1016159;-65
2023/09/21 11:47:14;;;;;;;10.80;2.90;;;;;;;36.11;33.28;98331.05;67832;1276;1016436;-66
2023/09/21 11:50:18;;;;;;;12.50;3.10;;;;;;;36.36;33.25;98328.98;67867;1276;1016312;-65
2023/09/21 11:53:20;;;;;;;14.40;3.40;;;;;;;36.40;32.77;98325.70;67848;1276;1015724;-65
2023/09/21 11:56:23;;;;;;;14.70;3.30;;;;;;;36.51;32.96;98321.04;67845;1276;1016403;-67
2023/09/21 11:59:25;;;;;;;11.00;3.20;;;;;;;36.78;32.43;98313.89;67889;1276;1016242;-68
2023/09/21 12:02:27;;;;;;;9.30;3.00;;;;;;;36.70;32.55;98307.52;67878;1276;1016031;-67
2023/09/21 12:05:31;;;;;;;11.30;2.90;;;;;;;36.64;32.78;98302.67;67861;1276;1016496;-67
2023/09/21 12:08:34;;;;;;;12.40;3.40;;;;;;;36.73;32.42;98298.16;67810;1276;1016180;-66
2023/09/21 12:11:38;;;;;;;9.30;2.90;;;;;;;36.80;32.47;98295.81;67852;1276;1016286;-65
2023/09/21 12:14:44;;;;;;;12.40;3.30;;;;;;;36.92;32.74;98295.92;67842;1276;1016366;-66
2023/09/21 12:17:50;;;;;;;11.10;3.20;;;;;;;37.06;32.44;98292.65;67861;1276;1016312;-66
2023/09/21 12:20:56;;;;;;;8.30;2.80;;;;;;;36.82;32.10;98283.51;67849;1276;1016448;-65
2023/09/21 12:23:59;;;;;;;9.70;2.80;;;;;;;36.72;32.86;98280.15;67838;1276;1016783;-67
2023/09/21 12:27:03;;;;;;;12.90;2.80;;;;;;;36.84;32.38;98276.79;67871;1276;1016368;-67
2023/09/21 12:30:05;;;;;;;10.40;2.70;;;;;;;36.93;32.61;98275.55;67902;1276;1018678;-67
2023/09/21 12:33:08;;;;;;;9.30;2.50;;;;;;;37.04;31.48;98266.64;67903;1276;1016294;-66
2023/09/21 12:36:12;;;;;;;9.10;2.50;;;;;;;36.96;31.43;98269.08;67888;1276;1016545;-65
2023/09/21 12:39:15;;;;;;;6.30;2.30;;;;;;;36.84;30.68;98267.98;67869;1276;1016468;-65
2023/09/21 12:42:18;;;;;;;11.90;2.40;;;;;;;36.66;30.67;98262.41;67870;1276;1016844;-66
2023/09/21 12:45:21;;;;;;;9.10;2.30;;;;;;;36.40;30.86;98257.45;67836;1276;1016697;-66
2023/09/21 12:48:24;;;;;;;6.50;2.30;;;;;;;36.40;30.80;98255.39;67890;1276;1016387;-65
2023/09/21 12:51:29;;;;;;;6.80;2.10;;;;;;;36.66;30.87;98252.79;67849;1276;1016479;-67
2023/09/21 12:54:32;;;;;;;8.10;2.20;;;;;;;36.68;30.84;98251.15;67863;1276;1016693;-66
2023/09/21 12:57:35;;;;;;;8.50;2.30;;;;;;;36.95;30.73;98250.85;67896;1276;1016350;-67
2023/09/21 13:00:38;;;;;;;5.30;2.10;;;;;;;36.92;30.46;98246.05;67883;1276;1016571;-67
2023/09/21 13:03:40;;;;;;;6.30;2.00;;;;;;;37.06;30.61;98246.41;67876;1276;1016450;-66
2023/09/21 13:06:43;;;;;;;6.80;2.00;;;;;;;37.21;30.28;98236.05;67872;1276;1016342;-67
2023/09/21 13:09:45;;;;;;;9.80;2.00;;;;;;;37.26;30.09;98231.99;67828;1276;1016454;-67
2023/09/21 13:12:48;;;;;;;9.10;2.00;;;;;;;37.16;29.74;98228.61;67869;1276;1016882;-66
2023/09/21 13:15:50;;;;;;;4.60;2.00;;;;;;;37.03;29.42;98227.69;67883;1276;1016501;-66
2023/09/21 13:18:53;;;;;;;6.40;1.70;;;;;;;36.80;28.86;98222.23;67865;1276;1016117;-65
2023/09/21 13:21:56;;;;;;;6.40;2.00;;;;;;;36.78;29.74;98219.66;67859;1276;1016178;-64
2023/09/21 13:24:58;;;;;;;5.50;1.90;;;;;;;36.96;29.62;98221.17;67879;1276;1016098;-67
2023/09/21 13:28:00;;;;;;;9.60;2.00;;;;;;;37.05;29.35;98219.86;67877;1276;1019577;-66
2023/09/21 13:31:04;;;;;;;7.20;1.80;;;;;;;36.92;29.00;98220.09;67852;1276;1016244;-67
2023/09/21 13:34:06;;;;;;;9.10;2.20;;;;;;;36.94;29.26;98215.98;67888;1276;1016372;-67
2023/09/21 13:37:09;;;;;;;8.10;1.80;;;;;;;36.82;29.36;98213.55;67874;1276;1016754;-66
2023/09/21 13:40:13;;;;;;;9.90;2.10;;;;;;;36.82;29.14;98207.46;67877;1276;1017167;-66
2023/09/21 13:43:15;;;;;;;9.40;2.30;;;;;;;36.91;29.16;98205.19;67842;1276;1016377;-66
2023/09/21 13:46:18;;;;;;;6.20;2.20;;;;;;;36.83;28.80;98202.64;67839;1276;1016456;-68
2023/09/21 13:49:20;;;;;;;6.40;2.30;;;;;;;36.66;29.30;98197.95;67854;1276;1016087;-67
2023/09/21 13:52:23;;;;;;;11.90;2.30;;;;;;;36.87;29.59;98192.08;67870;1276;1016480;-67
2023/09/21 13:55:25;;;;;;;8.00;2.10;;;;;;;37.18;29.52;98188.56;67845;1276;1016381;-68